createdAt,value
2019-05-06T00:00:05.301Z,0.00
2019-05-06T00:01:05.456Z,0.00
2019-05-06T00:02:05.623Z,0.00
2019-05-06T00:03:06.563Z,0.00
2019-05-06T00:04:06.553Z,0.00
2019-05-06T00:05:07.151Z,0.00
2019-05-06T00:06:06.402Z,0.00
2019-05-06T00:07:07.059Z,0.00
2019-05-06T00:08:06.672Z,0.00
2019-05-06T00:09:06.805Z,0.00
2019-05-06T00:10:07.049Z,0.00
2019-05-06T00:11:07.563Z,0.00
2019-05-06T00:12:08.053Z,0.00
2019-05-06T00:13:07.568Z,0.00
2019-05-06T00:14:07.735Z,0.00
2019-05-06T00:15:07.911Z,0.00
2019-05-06T00:16:09.053Z,0.00
2019-05-06T00:17:09.049Z,0.00
2019-05-06T00:18:08.438Z,0.00
2019-05-06T00:19:08.606Z,0.00
2019-05-06T00:20:09.551Z,0.00
2019-05-06T00:21:09.557Z,0.00
2019-05-06T00:22:10.054Z,0.00
2019-05-06T00:23:09.323Z,0.00
2019-05-06T00:24:09.520Z,0.00
2019-05-06T00:25:09.687Z,0.00
2019-05-06T00:26:09.842Z,0.00
2019-05-06T00:27:10.005Z,0.00
2019-05-06T00:28:10.195Z,0.00
2019-05-06T00:29:10.397Z,0.00
2019-05-06T00:30:10.586Z,0.00
2019-05-06T00:31:14.033Z,0.00
2019-05-06T00:32:14.946Z,0.00
2019-05-06T00:33:11.035Z,0.00
2019-05-06T00:34:11.240Z,0.00
2019-05-06T00:35:11.434Z,0.00
2019-05-06T00:36:11.604Z,0.00
2019-05-06T00:37:11.789Z,0.00
2019-05-06T00:38:13.888Z,0.00
2019-05-06T00:39:12.252Z,0.00
2019-05-06T00:40:14.057Z,0.00
2019-05-06T00:41:14.367Z,0.00
2019-05-06T00:42:13.928Z,0.00
2019-05-06T00:43:14.084Z,0.00
2019-05-06T00:44:14.379Z,0.00
2019-05-06T00:45:14.268Z,0.00
2019-05-06T00:46:14.054Z,0.00
2019-05-06T00:47:13.641Z,0.00
2019-05-06T00:48:14.829Z,0.00
2019-05-06T00:49:14.555Z,0.00
2019-05-06T00:50:14.327Z,0.00
2019-05-06T00:51:16.055Z,0.00
2019-05-06T00:52:15.056Z,0.00
2019-05-06T00:53:14.725Z,0.00
2019-05-06T00:54:14.895Z,0.00
2019-05-06T00:55:15.081Z,0.00
2019-05-06T00:56:15.260Z,0.00
2019-05-06T00:57:16.060Z,0.00
2019-05-06T00:58:15.578Z,0.00
2019-05-06T00:59:16.553Z,0.00
2019-05-06T01:00:16.064Z,0.00
2019-05-06T01:01:25.915Z,0.00
2019-05-06T01:02:18.344Z,0.00
2019-05-06T01:03:16.463Z,0.00
2019-05-06T01:04:16.686Z,0.00
2019-05-06T01:05:16.888Z,0.00
2019-05-06T01:06:17.071Z,0.00
2019-05-06T01:07:17.272Z,0.00
2019-05-06T01:08:17.436Z,0.00
2019-05-06T01:09:17.650Z,0.00
2019-05-06T01:10:17.846Z,0.00
2019-05-06T01:11:18.005Z,0.00
2019-05-06T01:12:18.210Z,0.00
2019-05-06T01:13:18.376Z,0.00
2019-05-06T01:14:19.068Z,0.00
2019-05-06T01:15:18.722Z,0.00
2019-05-06T01:16:19.563Z,0.00
2019-05-06T01:17:19.080Z,0.00
2019-05-06T01:18:19.579Z,0.00
2019-05-06T01:19:19.477Z,0.00
2019-05-06T01:20:19.633Z,0.00
2019-05-06T01:21:19.773Z,0.00
2019-05-06T01:22:20.555Z,0.00
2019-05-06T01:23:20.077Z,0.00
2019-05-06T01:24:20.222Z,0.00
2019-05-06T01:25:20.377Z,0.00
2019-05-06T01:26:20.520Z,0.00
2019-05-06T01:27:20.690Z,0.00
2019-05-06T01:28:20.850Z,0.00
2019-05-06T01:29:21.026Z,0.00
2019-05-06T01:30:24.238Z,0.00
2019-05-06T01:31:21.292Z,0.00
2019-05-06T01:32:23.525Z,0.00
2019-05-06T01:33:21.684Z,0.00
2019-05-06T01:34:21.861Z,0.00
2019-05-06T01:35:22.017Z,0.00
2019-05-06T01:36:22.152Z,0.00
2019-05-06T01:37:24.363Z,0.00
2019-05-06T01:38:24.274Z,0.00
2019-05-06T01:39:24.424Z,0.00
2019-05-06T01:40:23.894Z,0.00
2019-05-06T01:41:24.570Z,0.00
2019-05-06T01:42:24.578Z,0.00
2019-05-06T01:43:24.161Z,0.00
2019-05-06T01:44:24.545Z,0.00
2019-05-06T01:45:23.822Z,0.00
2019-05-06T01:46:24.955Z,0.00
2019-05-06T01:47:24.206Z,0.00
2019-05-06T01:48:24.558Z,0.00
2019-05-06T01:49:26.071Z,0.00
2019-05-06T01:50:25.065Z,0.00
2019-05-06T01:51:24.954Z,0.00
2019-05-06T01:52:25.166Z,0.00
2019-05-06T01:53:26.059Z,0.00
2019-05-06T01:54:25.540Z,0.00
2019-05-06T01:55:25.682Z,0.00
2019-05-06T01:56:25.828Z,0.00
2019-05-06T01:57:25.991Z,0.00
2019-05-06T01:58:26.133Z,0.00
2019-05-06T01:59:27.058Z,0.00
2019-05-06T02:00:26.407Z,0.00
2019-05-06T02:01:26.553Z,0.00
2019-05-06T02:02:26.712Z,0.00
2019-05-06T02:03:26.870Z,0.00
2019-05-06T02:04:27.020Z,0.00
2019-05-06T02:05:27.161Z,0.00
2019-05-06T02:06:27.301Z,0.00
2019-05-06T02:07:27.575Z,0.00
2019-05-06T02:08:27.620Z,0.00
2019-05-06T02:09:27.774Z,0.00
2019-05-06T02:10:28.552Z,0.00
2019-05-06T02:11:28.183Z,0.00
2019-05-06T02:12:28.369Z,0.00
2019-05-06T02:13:28.543Z,0.00
2019-05-06T02:14:28.730Z,0.00
2019-05-06T02:15:28.889Z,0.00
2019-05-06T02:16:29.568Z,0.00
2019-05-06T02:17:29.225Z,0.00
2019-05-06T02:18:29.369Z,0.00
2019-05-06T02:19:29.531Z,0.00
2019-05-06T02:20:29.667Z,0.00
2019-05-06T02:21:29.788Z,0.00
2019-05-06T02:22:29.911Z,0.00
2019-05-06T02:23:30.037Z,0.00
2019-05-06T02:24:30.189Z,0.00
2019-05-06T02:25:30.304Z,0.00
2019-05-06T02:26:30.446Z,0.00
2019-05-06T02:27:30.627Z,0.00
2019-05-06T02:28:30.750Z,0.00
2019-05-06T02:29:30.919Z,0.00
2019-05-06T02:30:31.058Z,0.00
2019-05-06T02:31:31.211Z,0.00
2019-05-06T02:32:31.944Z,0.00
2019-05-06T02:33:31.566Z,0.00
2019-05-06T02:34:31.731Z,0.00
2019-05-06T02:35:34.754Z,0.00
2019-05-06T02:36:34.454Z,0.00
2019-05-06T02:37:34.959Z,0.00
2019-05-06T02:38:39.740Z,0.00
2019-05-06T02:39:34.714Z,0.00
2019-05-06T02:40:33.823Z,0.00
2019-05-06T02:41:33.838Z,0.00
2019-05-06T02:42:35.067Z,0.00
2019-05-06T02:43:34.726Z,0.00
2019-05-06T02:44:34.508Z,0.00
2019-05-06T02:45:33.823Z,0.00
2019-05-06T02:46:34.029Z,0.00
2019-05-06T02:47:34.961Z,0.00
2019-05-06T02:48:35.070Z,0.00
2019-05-06T02:49:34.463Z,0.00
2019-05-06T02:50:34.604Z,0.00
2019-05-06T02:51:34.778Z,0.00
2019-05-06T02:52:34.941Z,0.00
2019-05-06T02:53:35.084Z,0.00
2019-05-06T02:54:36.078Z,0.00
2019-05-06T02:55:36.267Z,0.00
2019-05-06T02:56:36.648Z,0.00
2019-05-06T02:57:36.763Z,0.00
2019-05-06T02:58:35.913Z,0.00
2019-05-06T02:59:37.074Z,0.00
2019-05-06T03:00:36.203Z,0.00
2019-05-06T03:01:36.359Z,0.00
2019-05-06T03:02:43.263Z,0.00
2019-05-06T03:03:39.559Z,0.00
2019-05-06T03:04:36.909Z,0.00
2019-05-06T03:05:38.062Z,0.00
2019-05-06T03:06:38.320Z,0.00
2019-05-06T03:07:37.841Z,0.00
2019-05-06T03:08:39.061Z,0.00
2019-05-06T03:09:37.805Z,0.00
2019-05-06T03:10:37.945Z,0.00
2019-05-06T03:11:38.135Z,0.00
2019-05-06T03:12:38.323Z,0.00
2019-05-06T03:13:38.507Z,0.00
2019-05-06T03:14:38.658Z,0.00
2019-05-06T03:15:39.808Z,0.00
2019-05-06T03:16:39.047Z,0.00
2019-05-06T03:17:39.237Z,0.00
2019-05-06T03:18:39.385Z,0.00
2019-05-06T03:19:39.530Z,4.00
2019-05-06T03:20:39.663Z,4.00
2019-05-06T03:21:39.823Z,4.00
2019-05-06T03:22:43.276Z,4.00
2019-05-06T03:23:43.322Z,0.00
2019-05-06T03:24:43.360Z,4.00
2019-05-06T03:25:43.728Z,4.00
2019-05-06T03:26:43.780Z,4.00
2019-05-06T03:27:43.889Z,4.00
2019-05-06T03:28:44.107Z,4.00
2019-05-06T03:29:44.179Z,8.00
2019-05-06T03:30:45.773Z,8.00
2019-05-06T03:31:46.250Z,8.00
2019-05-06T03:33:18.733Z,8.00
2019-05-06T03:33:58.510Z,12.00
2019-05-06T03:35:01.132Z,12.00
2019-05-06T03:36:00.715Z,16.00
2019-05-06T03:36:48.618Z,20.00
2019-05-06T03:37:44.120Z,20.00
2019-05-06T03:38:43.831Z,24.00
2019-05-06T03:39:43.508Z,28.00
2019-05-06T03:40:45.915Z,32.00
2019-05-06T03:41:44.299Z,36.00
2019-05-06T03:42:43.415Z,40.00
2019-05-06T03:43:43.814Z,44.00
2019-05-06T03:44:43.736Z,44.00
2019-05-06T03:45:43.913Z,52.00
2019-05-06T03:46:44.086Z,60.00
2019-05-06T03:47:44.260Z,68.00
2019-05-06T03:48:44.621Z,80.00
2019-05-06T03:49:44.547Z,92.00
2019-05-06T03:50:44.700Z,104.00
2019-05-06T03:51:44.875Z,124.00
2019-05-06T03:52:45.058Z,140.00
2019-05-06T03:53:46.067Z,164.00
2019-05-06T03:54:45.463Z,184.00
2019-05-06T03:55:47.192Z,200.00
2019-05-06T03:56:46.812Z,220.00
2019-05-06T03:57:46.950Z,236.00
2019-05-06T03:58:47.059Z,256.00
2019-05-06T03:59:46.337Z,280.00
2019-05-06T04:00:46.506Z,300.00
2019-05-06T04:01:46.672Z,320.00
2019-05-06T04:02:46.849Z,348.00
2019-05-06T04:03:52.273Z,372.00
2019-05-06T04:04:49.284Z,400.00
2019-05-06T04:05:47.398Z,436.00
2019-05-06T04:06:47.547Z,472.00
2019-05-06T04:07:47.705Z,508.00
2019-05-06T04:08:47.829Z,548.00
2019-05-06T04:09:48.007Z,600.00
2019-05-06T04:10:48.575Z,656.00
2019-05-06T04:11:48.356Z,712.00
2019-05-06T04:12:48.522Z,764.00
2019-05-06T04:13:48.678Z,820.00
2019-05-06T04:14:49.568Z,876.00
2019-05-06T04:15:48.973Z,948.00
2019-05-06T04:16:49.129Z,1032.00
2019-05-06T04:17:49.303Z,1104.00
2019-05-06T04:18:49.471Z,1168.00
2019-05-06T04:19:49.616Z,1232.00
2019-05-06T04:20:52.927Z,1300.00
2019-05-06T04:21:53.179Z,1412.00
2019-05-06T04:22:53.167Z,1540.00
2019-05-06T04:23:53.490Z,1664.00
2019-05-06T04:24:53.858Z,1768.00
2019-05-06T04:25:52.683Z,1828.00
2019-05-06T04:26:53.442Z,1868.00
2019-05-06T04:27:53.765Z,1928.00
2019-05-06T04:28:53.410Z,2000.00
2019-05-06T04:29:54.330Z,2024.00
2019-05-06T04:30:54.831Z,2080.00
2019-05-06T04:31:53.940Z,2136.00
2019-05-06T04:32:53.314Z,2216.00
2019-05-06T04:34:08.481Z,2328.00
2019-05-06T04:34:54.218Z,2404.00
2019-05-06T04:35:54.249Z,2476.00
2019-05-06T04:36:53.702Z,2596.00
2019-05-06T04:37:53.825Z,2708.00
2019-05-06T04:38:54.278Z,2872.00
2019-05-06T04:39:54.046Z,3144.00
2019-05-06T04:40:54.089Z,3500.00
2019-05-06T04:41:54.444Z,3432.00
2019-05-06T04:42:53.577Z,3780.00
2019-05-06T04:43:53.762Z,3932.00
2019-05-06T04:44:53.936Z,3888.00
2019-05-06T04:45:54.381Z,4036.00
2019-05-06T04:46:54.664Z,4048.00
2019-05-06T04:47:55.516Z,4052.00
2019-05-06T04:48:55.085Z,4080.00
2019-05-06T04:49:54.866Z,4780.00
2019-05-06T04:50:54.994Z,4192.00
2019-05-06T04:51:55.168Z,4096.00
2019-05-06T04:52:55.322Z,4224.00
2019-05-06T04:53:55.469Z,4400.00
2019-05-06T04:54:55.604Z,4608.00
2019-05-06T04:55:55.762Z,4952.00
2019-05-06T04:56:55.920Z,5676.00
2019-05-06T04:57:56.051Z,5452.00
2019-05-06T04:58:56.189Z,5344.00
2019-05-06T04:59:56.332Z,5316.00
2019-05-06T05:00:56.490Z,5304.00
2019-05-06T05:01:56.659Z,5376.00
2019-05-06T05:02:56.795Z,5404.00
2019-05-06T05:03:56.925Z,5512.00
2019-05-06T05:04:57.071Z,5360.00
2019-05-06T05:05:57.222Z,5656.00
2019-05-06T05:06:57.426Z,5128.00
2019-05-06T05:07:57.594Z,4976.00
2019-05-06T05:08:57.760Z,4788.00
2019-05-06T05:09:57.911Z,4776.00
2019-05-06T05:10:58.065Z,4876.00
2019-05-06T05:11:58.246Z,4972.00
2019-05-06T05:12:58.420Z,5192.00
2019-05-06T05:13:58.590Z,5820.00
2019-05-06T05:14:58.758Z,6392.00
2019-05-06T05:15:58.925Z,5724.00
2019-05-06T05:16:59.085Z,5764.00
2019-05-06T05:17:59.254Z,5896.00
2019-05-06T05:18:59.416Z,5808.00
2019-05-06T05:20:02.023Z,5816.00
2019-05-06T05:20:59.711Z,5280.00
2019-05-06T05:21:59.829Z,5060.00
2019-05-06T05:22:59.990Z,5044.00
2019-05-06T05:24:01.989Z,5064.00
2019-05-06T05:25:03.283Z,5120.00
2019-05-06T05:26:02.722Z,5172.00
2019-05-06T05:27:03.026Z,5260.00
2019-05-06T05:28:02.211Z,5216.00
2019-05-06T05:29:02.862Z,4820.00
2019-05-06T05:30:02.318Z,4328.00
2019-05-06T05:31:03.033Z,3896.00
2019-05-06T05:32:02.198Z,3532.00
2019-05-06T05:33:02.903Z,4060.00
2019-05-06T05:34:02.294Z,2916.00
2019-05-06T05:35:03.350Z,2596.00
2019-05-06T05:36:02.599Z,2356.00
2019-05-06T05:37:03.573Z,2096.00
2019-05-06T05:38:03.113Z,1868.00
2019-05-06T05:39:04.191Z,1708.00
2019-05-06T05:40:03.405Z,1568.00
2019-05-06T05:41:03.559Z,1456.00
2019-05-06T05:42:03.701Z,1388.00
2019-05-06T05:43:03.843Z,1324.00
2019-05-06T05:44:03.978Z,1272.00
2019-05-06T05:45:04.123Z,1244.00
2019-05-06T05:46:04.286Z,1232.00
2019-05-06T05:47:04.423Z,1260.00
2019-05-06T05:48:04.542Z,1356.00
2019-05-06T05:49:04.686Z,1464.00
2019-05-06T05:50:04.829Z,1620.00
2019-05-06T05:51:04.989Z,1792.00
2019-05-06T05:52:06.123Z,1976.00
2019-05-06T05:53:05.349Z,2136.00
2019-05-06T05:54:05.492Z,2256.00
2019-05-06T05:55:05.642Z,2328.00
2019-05-06T05:56:05.810Z,2380.00
2019-05-06T05:57:05.982Z,2464.00
2019-05-06T05:58:07.075Z,2644.00
2019-05-06T05:59:06.297Z,2740.00
2019-05-06T06:00:07.425Z,2776.00
2019-05-06T06:01:06.573Z,2720.00
2019-05-06T06:02:06.725Z,2636.00
2019-05-06T06:03:07.446Z,2620.00
2019-05-06T06:04:07.999Z,2612.00
2019-05-06T06:05:07.133Z,2612.00
2019-05-06T06:06:07.310Z,2600.00
2019-05-06T06:07:07.475Z,2556.00
2019-05-06T06:08:07.607Z,2452.00
2019-05-06T06:09:07.744Z,2316.00
2019-05-06T06:10:07.931Z,2208.00
2019-05-06T06:11:08.106Z,2156.00
2019-05-06T06:12:08.289Z,2140.00
2019-05-06T06:13:08.438Z,2096.00
2019-05-06T06:14:08.584Z,2060.00
2019-05-06T06:15:08.733Z,2020.00
2019-05-06T06:16:08.874Z,1948.00
2019-05-06T06:17:09.049Z,1872.00
2019-05-06T06:18:09.183Z,1776.00
2019-05-06T06:19:09.307Z,1676.00
2019-05-06T06:20:09.451Z,1640.00
2019-05-06T06:21:18.809Z,1660.00
2019-05-06T06:22:11.832Z,1728.00
2019-05-06T06:23:10.876Z,1824.00
2019-05-06T06:24:09.995Z,1944.00
2019-05-06T06:25:13.997Z,2080.00
2019-05-06T06:26:12.136Z,2224.00
2019-05-06T06:27:12.451Z,2376.00
2019-05-06T06:28:11.948Z,2512.00
2019-05-06T06:29:12.489Z,2628.00
2019-05-06T06:30:12.816Z,2748.00
2019-05-06T06:31:12.041Z,2888.00
2019-05-06T06:32:13.784Z,3024.00
2019-05-06T06:33:12.959Z,3128.00
2019-05-06T06:34:13.003Z,3232.00
2019-05-06T06:35:14.714Z,3352.00
2019-05-06T06:36:13.047Z,3468.00
2019-05-06T06:37:13.247Z,3588.00
2019-05-06T06:38:13.459Z,3700.00
2019-05-06T06:39:13.089Z,3828.00
2019-05-06T06:40:13.577Z,3972.00
2019-05-06T06:41:12.823Z,4120.00
2019-05-06T06:42:12.988Z,4300.00
2019-05-06T06:43:13.123Z,4480.00
2019-05-06T06:44:13.353Z,4632.00
2019-05-06T06:45:14.355Z,4764.00
2019-05-06T06:46:13.589Z,4932.00
2019-05-06T06:47:13.704Z,5088.00
2019-05-06T06:48:13.942Z,5264.00
2019-05-06T06:49:14.231Z,5360.00
2019-05-06T06:50:14.336Z,5456.00
2019-05-06T06:51:14.475Z,5488.00
2019-05-06T06:52:15.026Z,5520.00
2019-05-06T06:53:15.749Z,5472.00
2019-05-06T06:54:15.996Z,5280.00
2019-05-06T06:55:15.096Z,5020.00
2019-05-06T06:56:15.221Z,4856.00
2019-05-06T06:57:15.479Z,4832.00
2019-05-06T06:58:15.579Z,4868.00
2019-05-06T06:59:15.865Z,4932.00
2019-05-06T07:00:16.015Z,5044.00
2019-05-06T07:01:16.166Z,5176.00
2019-05-06T07:02:16.326Z,5320.00
2019-05-06T07:03:16.501Z,5436.00
2019-05-06T07:04:16.621Z,5488.00
2019-05-06T07:05:25.507Z,5448.00
2019-05-06T07:06:18.982Z,5268.00
2019-05-06T07:07:17.182Z,5080.00
2019-05-06T07:08:31.381Z,4968.00
2019-05-06T07:09:18.457Z,4904.00
2019-05-06T07:10:17.696Z,4784.00
2019-05-06T07:11:18.086Z,4664.00
2019-05-06T07:12:18.036Z,4572.00
2019-05-06T07:13:18.099Z,4516.00
2019-05-06T07:14:18.253Z,4496.00
2019-05-06T07:15:18.390Z,4456.00
2019-05-06T07:16:20.710Z,4476.00
2019-05-06T07:17:19.581Z,4528.00
2019-05-06T07:18:18.828Z,4584.00
2019-05-06T07:19:18.982Z,4668.00
2019-05-06T07:20:19.103Z,4744.00
2019-05-06T07:21:19.289Z,4924.00
2019-05-06T07:22:19.435Z,5136.00
2019-05-06T07:23:19.611Z,5344.00
2019-05-06T07:24:22.672Z,5544.00
2019-05-06T07:25:22.116Z,5764.00
2019-05-06T07:26:20.255Z,5980.00
2019-05-06T07:27:22.426Z,6172.00
2019-05-06T07:28:22.807Z,6304.00
2019-05-06T07:29:25.792Z,6384.00
2019-05-06T07:30:23.079Z,6444.00
2019-05-06T07:31:26.382Z,6468.00
2019-05-06T07:32:23.240Z,6480.00
2019-05-06T07:33:23.068Z,6480.00
2019-05-06T07:34:22.959Z,6504.00
2019-05-06T07:35:37.428Z,6600.00
2019-05-06T07:36:24.045Z,6708.00
2019-05-06T07:37:22.303Z,6784.00
2019-05-06T07:38:23.536Z,6844.00
2019-05-06T07:39:24.230Z,6924.00
2019-05-06T07:40:24.575Z,7052.00
2019-05-06T07:41:23.565Z,7224.00
2019-05-06T07:42:24.284Z,7448.00
2019-05-06T07:43:23.415Z,7736.00
2019-05-06T07:44:23.549Z,8100.00
2019-05-06T07:45:23.710Z,8460.00
2019-05-06T07:46:23.885Z,8824.00
2019-05-06T07:47:24.109Z,9220.00
2019-05-06T07:48:24.266Z,9592.00
2019-05-06T07:49:24.428Z,10004.00
2019-05-06T07:50:24.618Z,10304.00
2019-05-06T07:51:24.749Z,10672.00
2019-05-06T07:52:24.887Z,10936.00
2019-05-06T07:53:25.045Z,10960.00
2019-05-06T07:54:25.184Z,10740.00
2019-05-06T07:55:25.355Z,10428.00
2019-05-06T07:56:25.515Z,10228.00
2019-05-06T07:57:26.573Z,10052.00
2019-05-06T07:58:25.809Z,9984.00
2019-05-06T07:59:25.962Z,9948.00
2019-05-06T08:00:26.587Z,9932.00
2019-05-06T08:01:26.357Z,9944.00
2019-05-06T08:02:26.514Z,10000.00
2019-05-06T08:03:26.669Z,10080.00
2019-05-06T08:04:26.845Z,10384.00
2019-05-06T08:05:27.042Z,10776.00
2019-05-06T08:06:27.207Z,11248.00
2019-05-06T08:07:27.357Z,11748.00
2019-05-06T08:08:27.501Z,12256.00
2019-05-06T08:09:27.697Z,12704.00
2019-05-06T08:10:27.885Z,13124.00
2019-05-06T08:11:28.074Z,13624.00
2019-05-06T08:12:28.242Z,14432.00
2019-05-06T08:13:28.396Z,15464.00
2019-05-06T08:14:28.558Z,17376.00
2019-05-06T08:15:28.717Z,17504.00
2019-05-06T08:16:28.893Z,17568.00
2019-05-06T08:17:29.041Z,23488.00
2019-05-06T08:18:29.184Z,18272.00
2019-05-06T08:19:29.359Z,15752.00
2019-05-06T08:20:29.498Z,15112.00
2019-05-06T08:21:29.650Z,14516.00
2019-05-06T08:22:29.820Z,15620.00
2019-05-06T08:23:32.400Z,16704.00
2019-05-06T08:24:30.150Z,23040.00
2019-05-06T08:25:32.836Z,30784.00
2019-05-06T08:26:32.294Z,33888.00
2019-05-06T08:27:32.870Z,18400.00
2019-05-06T08:28:38.647Z,22784.00
2019-05-06T08:29:33.219Z,19968.00
2019-05-06T08:30:32.435Z,18944.00
2019-05-06T08:31:32.775Z,18688.00
2019-05-06T08:32:32.547Z,18048.00
2019-05-06T08:33:32.710Z,18560.00
2019-05-06T08:34:34.261Z,19008.00
2019-05-06T08:35:33.186Z,18912.00
2019-05-06T08:36:33.202Z,22496.00
2019-05-06T08:37:32.431Z,73056.00
2019-05-06T08:38:32.744Z,61408.00
2019-05-06T08:39:33.762Z,90656.00
2019-05-06T08:40:33.599Z,72960.00
2019-05-06T08:41:33.362Z,46240.00
2019-05-06T08:42:33.310Z,95296.00
2019-05-06T08:43:33.514Z,65696.00
2019-05-06T08:44:33.688Z,64288.00
2019-05-06T08:45:33.817Z,51424.00
2019-05-06T08:46:33.968Z,42432.00
2019-05-06T08:47:34.110Z,45088.00
2019-05-06T08:48:34.261Z,54880.00
2019-05-06T08:49:34.602Z,53984.00
2019-05-06T08:50:34.598Z,31264.00
2019-05-06T08:51:34.730Z,20192.00
2019-05-06T08:52:34.875Z,17440.00
2019-05-06T08:53:35.603Z,15764.00
2019-05-06T08:54:35.267Z,13544.00
2019-05-06T08:55:35.400Z,11820.00
2019-05-06T08:56:35.542Z,10128.00
2019-05-06T08:57:35.695Z,8724.00
2019-05-06T08:58:35.854Z,7556.00
2019-05-06T08:59:36.084Z,6964.00
2019-05-06T09:00:36.262Z,6672.00
2019-05-06T09:01:36.429Z,6524.00
2019-05-06T09:02:36.572Z,6400.00
2019-05-06T09:03:36.736Z,6292.00
2019-05-06T09:04:36.924Z,6176.00
2019-05-06T09:05:37.087Z,6104.00
2019-05-06T09:06:37.264Z,6032.00
2019-05-06T09:07:37.405Z,6004.00
2019-05-06T09:08:37.568Z,6040.00
2019-05-06T09:09:37.735Z,6184.00
2019-05-06T09:10:37.871Z,6368.00
2019-05-06T09:11:39.026Z,6500.00
2019-05-06T09:12:38.263Z,6616.00
2019-05-06T09:13:38.412Z,6792.00
2019-05-06T09:14:38.569Z,7116.00
2019-05-06T09:15:38.725Z,7532.00
2019-05-06T09:16:38.869Z,8076.00
2019-05-06T09:17:39.032Z,8988.00
2019-05-06T09:18:39.201Z,10240.00
2019-05-06T09:19:39.388Z,13548.00
2019-05-06T09:20:39.523Z,29152.00
2019-05-06T09:21:43.378Z,21920.00
2019-05-06T09:22:42.870Z,25696.00
2019-05-06T09:23:42.216Z,32480.00
2019-05-06T09:24:42.470Z,33280.00
2019-05-06T09:25:42.323Z,32512.00
2019-05-06T09:26:42.945Z,28576.00
2019-05-06T09:27:42.206Z,30272.00
2019-05-06T09:28:42.662Z,31328.00
2019-05-06T09:29:42.938Z,31168.00
2019-05-06T09:30:43.169Z,31008.00
2019-05-06T09:31:42.710Z,30240.00
2019-05-06T09:32:42.981Z,29504.00
2019-05-06T09:33:42.722Z,28768.00
2019-05-06T09:34:43.038Z,27968.00
2019-05-06T09:35:43.045Z,24480.00
2019-05-06T09:36:51.509Z,26656.00
2019-05-06T09:37:44.348Z,26560.00
2019-05-06T09:38:42.625Z,26368.00
2019-05-06T09:39:43.224Z,27168.00
2019-05-06T09:40:43.963Z,28160.00
2019-05-06T09:41:47.419Z,28352.00
2019-05-06T09:42:45.336Z,29120.00
2019-05-06T09:43:43.610Z,29888.00
2019-05-06T09:44:43.751Z,31584.00
2019-05-06T09:45:43.912Z,27392.00
2019-05-06T09:46:44.044Z,13636.00
2019-05-06T09:47:44.224Z,13428.00
2019-05-06T09:48:44.380Z,13980.00
2019-05-06T09:49:44.536Z,14016.00
2019-05-06T09:50:46.152Z,30624.00
2019-05-06T09:51:45.895Z,36096.00
2019-05-06T09:52:45.175Z,21056.00
2019-05-06T09:53:45.340Z,17696.00
2019-05-06T09:54:46.115Z,16192.00
2019-05-06T09:55:45.624Z,12800.00
2019-05-06T09:56:45.811Z,12524.00
2019-05-06T09:57:46.011Z,12808.00
2019-05-06T09:58:47.109Z,13180.00
2019-05-06T09:59:47.104Z,14464.00
2019-05-06T10:00:46.610Z,13984.00
2019-05-06T10:01:46.770Z,14544.00
2019-05-06T10:02:49.476Z,17856.00
2019-05-06T10:03:48.137Z,21888.00
2019-05-06T10:04:47.274Z,34048.00
2019-05-06T10:05:47.429Z,33824.00
2019-05-06T10:06:56.355Z,31040.00
2019-05-06T10:07:49.718Z,28672.00
2019-05-06T10:08:47.943Z,26816.00
2019-05-06T10:09:48.142Z,25600.00
2019-05-06T10:10:56.933Z,24512.00
2019-05-06T10:11:52.425Z,21760.00
2019-05-06T10:12:48.647Z,22144.00
2019-05-06T10:13:48.812Z,21664.00
2019-05-06T10:14:48.959Z,20928.00
2019-05-06T10:15:49.108Z,19616.00
2019-05-06T10:16:52.224Z,19712.00
2019-05-06T10:17:52.036Z,19072.00
2019-05-06T10:18:49.613Z,18592.00
2019-05-06T10:19:49.766Z,17376.00
2019-05-06T10:20:49.949Z,14596.00
2019-05-06T10:21:50.117Z,10928.00
2019-05-06T10:22:52.367Z,10344.00
2019-05-06T10:23:52.858Z,9508.00
2019-05-06T10:24:52.271Z,9068.00
2019-05-06T10:25:52.299Z,8756.00
2019-05-06T10:26:52.404Z,8520.00
2019-05-06T10:27:52.496Z,8588.00
2019-05-06T10:28:52.526Z,9044.00
2019-05-06T10:29:52.186Z,9364.00
2019-05-06T10:30:52.724Z,11036.00
2019-05-06T10:31:52.452Z,10016.00
2019-05-06T10:32:53.619Z,10408.00
2019-05-06T10:33:53.134Z,10808.00
2019-05-06T10:34:53.399Z,11308.00
2019-05-06T10:35:53.007Z,12496.00
2019-05-06T10:36:53.746Z,12288.00
2019-05-06T10:37:52.906Z,18624.00
2019-05-06T10:38:53.621Z,17280.00
2019-05-06T10:39:53.623Z,19200.00
2019-05-06T10:41:02.887Z,18304.00
2019-05-06T10:41:55.555Z,17184.00
2019-05-06T10:42:53.688Z,15980.00
2019-05-06T10:43:53.856Z,15208.00
2019-05-06T10:44:54.041Z,14432.00
2019-05-06T10:45:54.210Z,13860.00
2019-05-06T10:46:54.447Z,13324.00
2019-05-06T10:47:54.619Z,13012.00
2019-05-06T10:48:54.818Z,12484.00
2019-05-06T10:49:54.993Z,11600.00
2019-05-06T10:50:55.137Z,9708.00
2019-05-06T10:51:55.356Z,13516.00
2019-05-06T10:52:55.515Z,13656.00
2019-05-06T10:53:55.680Z,9596.00
2019-05-06T10:54:55.856Z,9512.00
2019-05-06T10:55:56.040Z,9696.00
2019-05-06T10:56:57.373Z,10020.00
2019-05-06T10:57:57.364Z,10140.00
2019-05-06T10:58:56.499Z,10108.00
2019-05-06T10:59:56.689Z,9812.00
2019-05-06T11:00:56.852Z,9992.00
2019-05-06T11:01:57.026Z,10352.00
2019-05-06T11:02:57.174Z,10416.00
2019-05-06T11:03:57.344Z,10572.00
2019-05-06T11:04:58.154Z,10968.00
2019-05-06T11:05:57.643Z,12124.00
2019-05-06T11:06:57.795Z,15216.00
2019-05-06T11:07:57.897Z,15968.00
2019-05-06T11:08:58.022Z,14332.00
2019-05-06T11:09:58.159Z,14772.00
2019-05-06T11:11:12.454Z,11604.00
2019-05-06T11:12:00.450Z,11260.00
2019-05-06T11:12:58.685Z,11076.00
2019-05-06T11:13:58.847Z,13704.00
2019-05-06T11:14:59.018Z,13620.00
2019-05-06T11:16:00.152Z,13444.00
2019-05-06T11:16:59.425Z,13924.00
2019-05-06T11:18:04.085Z,13840.00
2019-05-06T11:19:02.091Z,13616.00
2019-05-06T11:19:59.881Z,13888.00
2019-05-06T11:21:00.095Z,11900.00
2019-05-06T11:22:03.371Z,13848.00
2019-05-06T11:23:02.147Z,13624.00
2019-05-06T11:24:00.641Z,12936.00
2019-05-06T11:25:03.064Z,10908.00
2019-05-06T11:26:03.071Z,10328.00
2019-05-06T11:27:03.508Z,11156.00
2019-05-06T11:28:02.960Z,10484.00
2019-05-06T11:29:05.160Z,10544.00
2019-05-06T11:30:02.786Z,10356.00
2019-05-06T11:31:02.628Z,10228.00
2019-05-06T11:32:03.089Z,10056.00
2019-05-06T11:33:04.567Z,9876.00
2019-05-06T11:34:03.445Z,9512.00
2019-05-06T11:35:03.911Z,8848.00
2019-05-06T11:36:03.738Z,8260.00
2019-05-06T11:37:02.916Z,7896.00
2019-05-06T11:38:03.081Z,7764.00
2019-05-06T11:39:03.245Z,7816.00
2019-05-06T11:40:03.380Z,7976.00
2019-05-06T11:41:03.537Z,9200.00
2019-05-06T11:42:23.878Z,9884.00
2019-05-06T11:43:05.898Z,10764.00
2019-05-06T11:44:04.125Z,11172.00
2019-05-06T11:45:04.239Z,10268.00
2019-05-06T11:46:04.398Z,10196.00
2019-05-06T11:47:04.582Z,10352.00
2019-05-06T11:48:04.706Z,9968.00
2019-05-06T11:49:04.854Z,9524.00
2019-05-06T11:50:05.221Z,9284.00
2019-05-06T11:51:06.170Z,9356.00
2019-05-06T11:52:05.296Z,9232.00
2019-05-06T11:53:05.436Z,9700.00
2019-05-06T11:54:16.328Z,10276.00
2019-05-06T11:55:07.825Z,10968.00
2019-05-06T11:56:06.149Z,11520.00
2019-05-06T11:57:06.173Z,11948.00
2019-05-06T11:58:07.136Z,12272.00
2019-05-06T11:59:06.511Z,12616.00
2019-05-06T12:00:06.655Z,12912.00
2019-05-06T12:01:06.822Z,13220.00
2019-05-06T12:02:06.965Z,13368.00
2019-05-06T12:03:07.088Z,13396.00
2019-05-06T12:04:08.342Z,13208.00
2019-05-06T12:05:08.144Z,12888.00
2019-05-06T12:06:07.782Z,12452.00
2019-05-06T12:07:11.070Z,11900.00
2019-05-06T12:08:13.696Z,11496.00
2019-05-06T12:09:15.722Z,11388.00
2019-05-06T12:10:09.581Z,11480.00
2019-05-06T12:11:08.815Z,11672.00
2019-05-06T12:12:08.952Z,11828.00
2019-05-06T12:13:09.104Z,11712.00
2019-05-06T12:14:12.317Z,11400.00
2019-05-06T12:15:09.454Z,10944.00
2019-05-06T12:16:09.589Z,10476.00
2019-05-06T12:17:09.756Z,10236.00
2019-05-06T12:18:09.899Z,10128.00
2019-05-06T12:19:12.992Z,9852.00
2019-05-06T12:20:10.268Z,9400.00
2019-05-06T12:21:15.446Z,8900.00
2019-05-06T12:22:12.777Z,8444.00